Mississippi Voyager — WDD7294 — position and weather

sailwx.info

Track history (hours):
 
Tides and Currents Weather Stations Pressure Air Temp Water Temp Dewpoint Dewpoint Depression Visibility Wind Speed Wind Dir Waves Ship Positions

Mississippi Voyager

Owner: Chevron USA Inc., Washington, DC. More information available from US FCC via Universal Licensing System and Coast Guard Vessel Documentation Center.

Last reported at 2018-Feb-20 18:31 UTC. Time now 2018-Feb-22 14:59 UTC.
Position N 33°55' W 118°27'.

Length 183 m; draft 11 m.

Type: Tanker. MMSI: 366962000.

Date/timePositionNaut miles runAvg speedWind from/ knotsBaromVisibWave heightAir tempDewpointWater temp
2018-Feb-20 18:31N 33°55' W 118°27'0 1.5
2018-Feb-20 18:29N 33°55' W 118°27'1 1.5
2018-Feb-20 18:00N 33°54' W 118°27'2 2.1
2018-Feb-20 17:15N 33°54' W 118°29'0 0.1
2018-Feb-20 14:02N 33°54' W 118°29'0 0.0
2018-Feb-20 08:23N 33°54' W 118°29'0 0.0
2018-Feb-20 07:59N 33°54' W 118°29'0 0.0
2018-Feb-20 06:31N 33°54' W 118°29'0 0.2
2018-Feb-20 06:28N 33°54' W 118°29'0 0.0
2018-Feb-19 23:20N 33°54' W 118°29'0 0.1
2018-Feb-19 22:59N 33°54' W 118°29'0 0.0
2018-Feb-19 22:26N 33°54' W 118°29'0 0.0
2018-Feb-19 09:59N 33°54' W 118°29'1 2.4
2018-Feb-19 09:30N 33°55' W 118°28'1 0.0
2018-Feb-18 16:53N 33°55' W 118°27'0 0.4
2018-Feb-18 16:29N 33°55' W 118°27'1 2.5
2018-Feb-18 15:57N 33°54' W 118°28'2 4.0
2018-Feb-18 15:30N 33°53' W 118°30'2 3.0
2018-Feb-18 15:00N 33°52' W 118°32'5 9.5
2018-Feb-18 14:30N 33°51' W 118°37'611.4
2018-Feb-18 14:00N 33°47' W 118°42'610.6
2018-Feb-18 13:29N 33°44' W 118°48'612.2
2018-Feb-18 12:59N 33°44' W 118°55'612.0
2018-Feb-18 12:30N 33°44' W 119°02'712.3
2018-Feb-18 11:57N 33°43' W 119°10'612.5
2018-Feb-18 11:30N 33°43' W 119°17'712.6
2018-Feb-18 10:57N 33°42' W 119°25'4 9.3
2018-Feb-18 10:31N 33°39' W 119°29'713.1
2018-Feb-18 10:00N 33°41' W 119°21'813.6
2018-Feb-18 09:24N 33°44' W 119°12'2 4.9
2018-Feb-18 09:00N 33°42' W 119°12'712.6
2018-Feb-18 08:29N 33°39' W 119°19'612.4
2018-Feb-18 07:59N 33°41' W 119°25'612.3
2018-Feb-18 07:30N 33°41' W 119°32'612.3
2018-Feb-18 07:00N 33°40' W 119°40'612.2
2018-Feb-18 06:30N 33°40' W 119°47'612.5
2018-Feb-18 06:00N 33°39' W 119°54'4 7.1
2018-Feb-18 05:30N 33°39' W 119°59'510.8
2018-Feb-18 05:00N 33°38' W 120°05'713.9
2018-Feb-18 04:28N 33°37' W 120°14'614.1
2018-Feb-18 04:01N 33°40' W 120°21'714.2
2018-Feb-18 03:31N 33°42' W 120°29'714.1
2018-Feb-18 03:01N 33°45' W 120°36'814.0
2018-Feb-18 02:28N 33°48' W 120°45'614.0
2018-Feb-18 02:00N 33°51' W 120°52'713.9
2018-Feb-18 01:30N 33°54' W 120°60'713.8
2018-Feb-18 00:57N 33°57' W 121°08'713.6
2018-Feb-18 00:28N 33°60' W 121°15'713.8
2018-Feb-17 23:56N 34°03' W 121°23'613.4
2018-Feb-17 23:29N 34°06' W 121°30'714.0
2018-Feb-17 23:00N 34°11' W 121°34'713.9
2018-Feb-17 22:31N 34°17' W 121°38'714.0
2018-Feb-17 22:00N 34°23' W 121°43'713.9
2018-Feb-17 21:30N 34°29' W 121°47'713.6
2018-Feb-17 21:00N 34°35' W 121°51'713.3
2018-Feb-17 20:30N 34°41' W 121°55'713.2
2018-Feb-17 20:00N 34°46' W 121°60'713.5
2018-Feb-17 19:30N 34°52' W 122°04'713.5
2018-Feb-17 19:00N 34°58' W 122°08'713.5
2018-Feb-17 18:30N 35°04' W 122°13'713.4
2018-Feb-17 18:00N 35°09' W 122°17'713.4
2018-Feb-17 17:29N 35°16' W 122°21'613.5
2018-Feb-17 17:00N 35°21' W 122°25'713.5
2018-Feb-17 16:30N 35°27' W 122°30'713.4
2018-Feb-17 16:00N 35°32' W 122°34'713.6
2018-Feb-17 15:30N 35°38' W 122°38'713.4
2018-Feb-17 15:00N 35°44' W 122°43'713.2
2018-Feb-17 14:30N 35°50' W 122°47'613.0
2018-Feb-17 14:00N 35°55' W 122°51'713.1
2018-Feb-17 13:30N 36°01' W 122°55'713.4
2018-Feb-17 13:00N 36°06' W 122°60'713.4
2018-Feb-17 12:30N 36°12' W 123°04'713.5
2018-Feb-17 12:00N 36°18' W 123°08'812.4
2018-Feb-17 11:21N 36°25' W 123°12'513.4
2018-Feb-17 11:00N 36°30' W 123°11'713.2
2018-Feb-17 10:30N 36°37' W 123°10'713.0
2018-Feb-17 10:00N 36°43' W 123°10'713.2
2018-Feb-17 09:30N 36°50' W 123°09'813.7
2018-Feb-17 08:57N 36°57' W 123°08'613.3
2018-Feb-17 08:30N 37°03' W 123°08'713.2
2018-Feb-17 07:59N 37°10' W 123°08'612.8
2018-Feb-17 07:30N 37°16' W 123°09'713.0
2018-Feb-17 07:00N 37°23' W 123°08'713.6
2018-Feb-17 06:30N 37°30' W 123°07'612.2
2018-Feb-17 06:00N 37°34' W 123°02'713.3
2018-Feb-17 05:30N 37°38' W 122°55'713.2
2018-Feb-17 05:00N 37°42' W 122°48'612.4
2018-Feb-17 04:30N 37°44' W 122°41'611.9
2018-Feb-17 04:00N 37°47' W 122°35'611.4
2018-Feb-17 03:30N 37°50' W 122°28'4 7.1
2018-Feb-17 03:00N 37°52' W 122°25'3 7.0
2018-Feb-17 02:30N 37°55' W 122°25'0 0.2
2018-Feb-17 01:55N 37°55' W 122°25'0 0.0
2018-Feb-17 01:25N 37°55' W 122°25'0 0.0
2018-Feb-17 00:58N 37°55' W 122°25'0 0.0
2018-Feb-17 00:19N 37°55' W 122°25'0 0.0
2018-Feb-16 23:55N 37°55' W 122°25'0 0.0
2018-Feb-16 23:25N 37°55' W 122°25'0 0.0
2018-Feb-16 22:58N 37°55' W 122°25'0 0.0
2018-Feb-16 22:28N 37°55' W 122°25'0 0.0
2018-Feb-16 21:58N 37°55' W 122°25'0 0.0
2018-Feb-16 21:25N 37°55' W 122°25'0 0.0
2018-Feb-16 20:58N 37°55' W 122°25'0 0.0
2018-Feb-16 20:28N 37°55' W 122°25'0 0.0
2018-Feb-16 19:58N 37°55' W 122°25'0 0.0
2018-Feb-16 19:28N 37°55' W 122°25'0 0.0
2018-Feb-16 18:55N 37°55' W 122°25'0 0.0
2018-Feb-16 18:28N 37°55' W 122°25'0 0.0
2018-Feb-16 17:58N 37°55' W 122°25'0 0.0
2018-Feb-16 17:28N 37°55' W 122°25'0 0.0
2018-Feb-16 16:58N 37°55' W 122°25'0 0.0
2018-Feb-16 16:25N 37°55' W 122°25'0 0.0
2018-Feb-16 15:58N 37°55' W 122°25'0 0.0
2018-Feb-16 15:28N 37°55' W 122°25'0 0.0
2018-Feb-16 14:58N 37°55' W 122°25'0 0.0
2018-Feb-16 14:26N 37°55' W 122°25'0 0.0
2018-Feb-16 13:59N 37°55' W 122°25'0 0.0
2018-Feb-16 13:30N 37°55' W 122°25'0 0.0
2018-Feb-16 12:57N 37°55' W 122°25'0 0.0
2018-Feb-16 12:30N 37°55' W 122°25'0 0.0
2018-Feb-16 11:57N 37°55' W 122°25'0 0.0
2018-Feb-16 11:31N 37°55' W 122°25'0 0.0
2018-Feb-16 11:00N 37°55' W 122°25'0 0.0
2018-Feb-16 10:30N 37°55' W 122°25'0 0.0
2018-Feb-16 09:57N 37°55' W 122°25'0 0.0
2018-Feb-16 09:27N 37°55' W 122°25'0 0.0
2018-Feb-16 09:00N 37°55' W 122°25'0 0.0
2018-Feb-16 08:27N 37°55' W 122°25'0 0.0
2018-Feb-16 08:01N 37°55' W 122°25'0 0.0
2018-Feb-16 07:30N 37°55' W 122°25'0 0.0
2018-Feb-16 06:58N 37°55' W 122°25'0 0.0
2018-Feb-16 06:28N 37°55' W 122°25'0 0.0
2018-Feb-16 05:58N 37°55' W 122°25'0 0.0
2018-Feb-16 05:28N 37°55' W 122°25'0 0.0
2018-Feb-16 04:52N 37°55' W 122°25'0 0.0
2018-Feb-16 04:28N 37°55' W 122°25'0 0.0
2018-Feb-16 03:58N 37°55' W 122°25'0 0.0
2018-Feb-16 03:28N 37°55' W 122°25'0 0.0
2018-Feb-16 02:58N 37°55' W 122°25'0 0.0
2018-Feb-16 02:28N 37°55' W 122°25'0 0.0
2018-Feb-16 01:58N 37°55' W 122°25'0 0.0
2018-Feb-16 01:28N 37°55' W 122°25'0 0.0
2018-Feb-16 00:58N 37°55' W 122°25'0 0.0
2018-Feb-16 00:28N 37°55' W 122°25'0 0.0
2018-Feb-15 23:58N 37°55' W 122°25'0 0.0
2018-Feb-15 23:28N 37°55' W 122°25'0 0.0
2018-Feb-15 22:58N 37°55' W 122°25'0 0.0
2018-Feb-15 22:28N 37°55' W 122°25'0 0.0
2018-Feb-15 21:58N 37°55' W 122°25'0 0.0
2018-Feb-15 21:28N 37°55' W 122°25'0 0.0
2018-Feb-15 20:58N 37°55' W 122°25'0 0.0
2018-Feb-15 20:28N 37°55' W 122°25'0 0.0
2018-Feb-15 19:58N 37°55' W 122°25'0 0.0
2018-Feb-15 19:28N 37°55' W 122°25'0 0.0
2018-Feb-15 19:00N 37°55' W 122°25'0 0.0
2018-Feb-15 18:30N 37°55' W 122°25'0 0.0
2018-Feb-15 17:57N 37°55' W 122°25'0 0.0
2018-Feb-15 17:30N 37°55' W 122°25'0 0.0
2018-Feb-15 17:00N 37°55' W 122°25'0 0.0
2018-Feb-15 16:30N 37°55' W 122°25'0 0.0
2018-Feb-15 16:00N 37°55' W 122°25'0 0.0
2018-Feb-15 15:21N 37°55' W 122°25'0 0.0
2018-Feb-15 15:00N 37°55' W 122°25'0 0.0
2018-Feb-15 14:30N 37°55' W 122°25'0 0.0
2018-Feb-15 13:57N 37°55' W 122°25'0 0.0
2018-Feb-15 13:30N 37°55' W 122°25'0 0.0
2018-Feb-15 13:00N 37°55' W 122°25'0 0.0
2018-Feb-15 12:30N 37°55' W 122°25'0 0.0
2018-Feb-15 11:57N 37°55' W 122°25'0 0.0
2018-Feb-15 11:30N 37°55' W 122°25'0 0.0
2018-Feb-15 11:00N 37°55' W 122°25'0 0.0
2018-Feb-15 10:30N 37°55' W 122°25'0 0.0
2018-Feb-15 10:00N 37°55' W 122°25'0 0.0
2018-Feb-15 09:30N 37°55' W 122°25'0 0.0
2018-Feb-15 08:57N 37°55' W 122°25'0 0.0
2018-Feb-15 08:30N 37°55' W 122°25'0 0.0
2018-Feb-15 08:00N 37°55' W 122°25'0 0.0
2018-Feb-15 07:27N 37°55' W 122°25'0 0.0
2018-Feb-15 06:58N 37°55' W 122°25'0 0.0
2018-Feb-15 06:25N 37°55' W 122°25'0 0.0
2018-Feb-15 05:58N 37°55' W 122°25'0 0.0
2018-Feb-15 05:25N 37°55' W 122°25'0 0.0
2018-Feb-15 04:52N 37°55' W 122°25'0 0.0
2018-Feb-15 04:22N 37°55' W 122°25'0 0.0
2018-Feb-15 03:52N 37°55' W 122°25'0 0.0
2018-Feb-15 03:25N 37°55' W 122°25'0 0.0
2018-Feb-15 02:58N 37°55' W 122°25'0 0.0
2018-Feb-15 02:28N 37°55' W 122°25'0 0.0
2018-Feb-15 01:58N 37°55' W 122°25'0 0.0
2018-Feb-15 01:28N 37°55' W 122°25'0 0.0
2018-Feb-15 00:58N 37°55' W 122°25'0 0.0
2018-Feb-15 00:25N 37°55' W 122°25'0 0.0
2018-Feb-14 23:58N 37°55' W 122°25'0 0.0
2018-Feb-14 23:28N 37°55' W 122°25'0 0.0
2018-Feb-14 22:55N 37°55' W 122°25'0 0.0
2018-Feb-14 22:25N 37°55' W 122°25'0 0.0
2018-Feb-14 21:58N 37°55' W 122°25'0 0.0
2018-Feb-14 21:28N 37°55' W 122°25'0 0.0
2018-Feb-14 20:55N 37°55' W 122°25'0 0.0
2018-Feb-14 20:28N 37°55' W 122°25'0 0.0
2018-Feb-14 19:58N 37°55' W 122°25'0 0.0
2018-Feb-14 19:28N 37°55' W 122°25'0 0.0
2018-Feb-14 18:58N 37°55' W 122°25'0 0.0
2018-Feb-14 18:25N 37°55' W 122°25'0 0.0
2018-Feb-14 17:58N 37°55' W 122°25'0 0.0
2018-Feb-14 17:28N 37°55' W 122°25'0 0.0
2018-Feb-14 16:58N 37°55' W 122°25'0 0.0
2018-Feb-14 16:25N 37°55' W 122°25'0 0.0
2018-Feb-14 15:55N 37°55' W 122°25'0 0.0
2018-Feb-14 15:25N 37°55' W 122°25'0 0.0
2018-Feb-14 14:55N 37°55' W 122°25'0 0.0
2018-Feb-14 14:25N 37°55' W 122°25'0 0.0
2018-Feb-14 13:55N 37°55' W 122°25'0 0.0
2018-Feb-14 13:28N 37°55' W 122°25'0 0.0
2018-Feb-14 12:55N 37°55' W 122°25'0 0.0
2018-Feb-14 12:25N 37°55' W 122°25'0 0.0
2018-Feb-14 11:58N 37°55' W 122°25'0 0.0
2018-Feb-14 11:25N 37°55' W 122°25'0 0.0
2018-Feb-14 10:55N 37°55' W 122°25'0 0.0
2018-Feb-14 10:25N 37°55' W 122°25'0 0.0
2018-Feb-14 09:58N 37°55' W 122°25'0 0.0
2018-Feb-14 09:28N 37°55' W 122°25'0 0.0
2018-Feb-14 08:58N 37°55' W 122°25'0 0.0
2018-Feb-14 08:28N 37°55' W 122°25'0 0.0
2018-Feb-14 07:58N 37°55' W 122°25'0 0.0
2018-Feb-14 07:28N 37°55' W 122°25'0 0.0
2018-Feb-14 06:59N 37°55' W 122°25'0 0.1
2018-Feb-14 06:30N 37°55' W 122°25'0 0.9
2018-Feb-14 06:00N 37°55' W 122°25'4 7.8
2018-Feb-14 05:31N 37°51' W 122°24'4 8.0
2018-Feb-14 05:00N 37°48' W 122°22'2 3.4
2018-Feb-14 04:31N 37°46' W 122°21'0 0.4
2018-Feb-14 03:58N 37°46' W 122°21'0 0.1
2018-Feb-14 03:28N 37°46' W 122°22'0 0.0
2018-Feb-14 02:58N 37°46' W 122°22'0 0.0
2018-Feb-14 02:28N 37°46' W 122°22'0 0.3
2018-Feb-14 01:59N 37°46' W 122°22'0 0.2
2018-Feb-14 01:29N 37°46' W 122°22'0 0.0
2018-Feb-14 00:59N 37°46' W 122°22'0 0.0
2018-Feb-14 00:29N 37°46' W 122°22'0 0.0
2018-Feb-13 23:59N 37°46' W 122°22'0 0.0
2018-Feb-13 23:29N 37°46' W 122°22'0 0.1
2018-Feb-13 22:59N 37°46' W 122°22'0 0.2
2018-Feb-13 22:30N 37°46' W 122°22'1 1.2
2018-Feb-13 22:00N 37°46' W 122°21'1 2.7
2018-Feb-13 21:30N 37°47' W 122°22'2 3.8
2018-Feb-13 21:00N 37°49' W 122°23'4 7.4
2018-Feb-13 20:30N 37°49' W 122°27'4 8.8
2018-Feb-13 20:00N 37°47' W 122°33'511.0
2018-Feb-13 19:30N 37°45' W 122°39'612.2
2018-Feb-13 19:00N 37°41' W 122°45'612.7
2018-Feb-13 18:30N 37°38' W 122°51'612.7
2018-Feb-13 18:01N 37°34' W 122°58'611.7
2018-Feb-13 17:30N 37°30' W 123°03'611.9
2018-Feb-13 17:00N 37°24' W 123°04'17810.2
2018-Feb-12 23:27N 34°36' W 121°52'510.7
2018-Feb-12 22:59N 34°31' W 121°49'510.3
2018-Feb-12 22:30N 34°27' W 121°45'611.2
2018-Feb-12 22:00N 34°22' W 121°42'611.3
2018-Feb-12 21:30N 34°17' W 121°38'611.4
2018-Feb-12 21:00N 34°13' W 121°35'611.7
2018-Feb-12 20:30N 34°08' W 121°31'611.0
2018-Feb-12 20:00N 34°04' W 121°26'611.4
2018-Feb-12 19:30N 34°01' W 121°20'611.6
2018-Feb-12 19:00N 33°59' W 121°14'611.9
2018-Feb-12 18:30N 33°57' W 121°07'612.0
2018-Feb-12 18:00N 33°54' W 121°01'612.1
2018-Feb-12 17:30N 33°52' W 120°54'612.0
2018-Feb-12 17:00N 33°49' W 120°47'612.2
2018-Feb-12 16:30N 33°47' W 120°41'612.0
2018-Feb-12 16:00N 33°44' W 120°34'612.1
2018-Feb-12 15:30N 33°42' W 120°27'612.0
2018-Feb-12 15:00N 33°39' W 120°21'611.6
2018-Feb-12 14:31N 33°37' W 120°15'612.1
2018-Feb-12 14:00N 33°38' W 120°07'612.4
2018-Feb-12 13:29N 33°38' W 119°60'612.5
2018-Feb-12 13:00N 33°39' W 119°52'612.7
2018-Feb-12 12:30N 33°40' W 119°45'612.8
2018-Feb-12 12:00N 33°41' W 119°37'712.9
2018-Feb-12 11:30N 33°41' W 119°29'613.0
2018-Feb-12 11:00N 33°42' W 119°22'713.1
2018-Feb-12 10:29N 33°43' W 119°13'613.0
2018-Feb-12 10:00N 33°43' W 119°06'612.0
2018-Feb-12 09:30N 33°44' W 118°59'612.0
2018-Feb-12 09:00N 33°44' W 118°52'611.9
2018-Feb-12 08:30N 33°44' W 118°45'611.1
2018-Feb-12 08:00N 33°49' W 118°41'13 2.0
2018-Feb-12 01:41N 33°55' W 118°27'0 0.0
2018-Feb-12 01:17N 33°55' W 118°27'0 0.0
2018-Feb-12 00:59N 33°55' W 118°27'0 0.0
2018-Feb-12 00:29N 33°55' W 118°27'0 0.0
2018-Feb-11 23:35N 33°55' W 118°27'0 0.0
2018-Feb-11 23:23N 33°55' W 118°27'0 0.0
2018-Feb-11 22:56N 33°55' W 118°27'0 0.0
2018-Feb-11 22:26N 33°55' W 118°27'0 0.0
2018-Feb-11 21:59N 33°55' W 118°27'0 0.0
2018-Feb-11 21:29N 33°55' W 118°27'0 0.0
2018-Feb-11 20:11N 33°55' W 118°27'0 0.0
2018-Feb-11 19:59N 33°55' W 118°27'0 0.0
2018-Feb-11 19:29N 33°55' W 118°27'0 0.0
2018-Feb-11 01:36N 33°55' W 118°27'0 0.0
2018-Feb-11 01:03N 33°55' W 118°27'0 0.0
2018-Feb-10 23:45N 33°55' W 118°27'0 0.0
2018-Feb-10 23:21N 33°55' W 118°27'  
Track history (hours):
 
Tides and Currents Weather Stations Pressure Air Temp Water Temp Dewpoint Dewpoint Depression Visibility Wind Speed Wind Dir Waves Ship Positions

Mississippi Voyager

Owner: Chevron USA Inc., Washington, DC. More information available from US FCC via Universal Licensing System and Coast Guard Vessel Documentation Center.

Last reported at 2018-Feb-20 18:31 UTC. Time now 2018-Feb-22 14:59 UTC.
Position N 33°55' W 118°27'.

Length 183 m; draft 11 m.

Type: Tanker. MMSI: 366962000.

Date/timePositionNaut miles runAvg speedWind from/ knotsBaromVisibWave heightAir tempDewpointWater temp
2018-Feb-20 18:31N 33°55' W 118°27'0 1.5
2018-Feb-20 18:29N 33°55' W 118°27'1 1.5
2018-Feb-20 18:00N 33°54' W 118°27'2 2.1
2018-Feb-20 17:15N 33°54' W 118°29'0 0.1
2018-Feb-20 14:02N 33°54' W 118°29'0 0.0
2018-Feb-20 08:23N 33°54' W 118°29'0 0.0
2018-Feb-20 07:59N 33°54' W 118°29'0 0.0
2018-Feb-20 06:31N 33°54' W 118°29'0 0.2
2018-Feb-20 06:28N 33°54' W 118°29'0 0.0
2018-Feb-19 23:20N 33°54' W 118°29'0 0.1
2018-Feb-19 22:59N 33°54' W 118°29'0 0.0
2018-Feb-19 22:26N 33°54' W 118°29'0 0.0
2018-Feb-19 09:59N 33°54' W 118°29'1 2.4
2018-Feb-19 09:30N 33°55' W 118°28'1 0.0
2018-Feb-18 16:53N 33°55' W 118°27'0 0.4
2018-Feb-18 16:29N 33°55' W 118°27'1 2.5
2018-Feb-18 15:57N 33°54' W 118°28'2 4.0
2018-Feb-18 15:30N 33°53' W 118°30'2 3.0
2018-Feb-18 15:00N 33°52' W 118°32'5 9.5
2018-Feb-18 14:30N 33°51' W 118°37'611.4
2018-Feb-18 14:00N 33°47' W 118°42'610.6
2018-Feb-18 13:29N 33°44' W 118°48'612.2
2018-Feb-18 12:59N 33°44' W 118°55'612.0
2018-Feb-18 12:30N 33°44' W 119°02'712.3
2018-Feb-18 11:57N 33°43' W 119°10'612.5
2018-Feb-18 11:30N 33°43' W 119°17'712.6
2018-Feb-18 10:57N 33°42' W 119°25'4 9.3
2018-Feb-18 10:31N 33°39' W 119°29'713.1
2018-Feb-18 10:00N 33°41' W 119°21'813.6
2018-Feb-18 09:24N 33°44' W 119°12'2 4.9
2018-Feb-18 09:00N 33°42' W 119°12'712.6
2018-Feb-18 08:29N 33°39' W 119°19'612.4
2018-Feb-18 07:59N 33°41' W 119°25'612.3
2018-Feb-18 07:30N 33°41' W 119°32'612.3
2018-Feb-18 07:00N 33°40' W 119°40'612.2
2018-Feb-18 06:30N 33°40' W 119°47'612.5
2018-Feb-18 06:00N 33°39' W 119°54'4 7.1
2018-Feb-18 05:30N 33°39' W 119°59'510.8
2018-Feb-18 05:00N 33°38' W 120°05'713.9
2018-Feb-18 04:28N 33°37' W 120°14'614.1
2018-Feb-18 04:01N 33°40' W 120°21'714.2
2018-Feb-18 03:31N 33°42' W 120°29'714.1
2018-Feb-18 03:01N 33°45' W 120°36'814.0
2018-Feb-18 02:28N 33°48' W 120°45'614.0
2018-Feb-18 02:00N 33°51' W 120°52'713.9
2018-Feb-18 01:30N 33°54' W 120°60'713.8
2018-Feb-18 00:57N 33°57' W 121°08'713.6
2018-Feb-18 00:28N 33°60' W 121°15'713.8
2018-Feb-17 23:56N 34°03' W 121°23'613.4
2018-Feb-17 23:29N 34°06' W 121°30'714.0
2018-Feb-17 23:00N 34°11' W 121°34'713.9
2018-Feb-17 22:31N 34°17' W 121°38'714.0
2018-Feb-17 22:00N 34°23' W 121°43'713.9
2018-Feb-17 21:30N 34°29' W 121°47'713.6
2018-Feb-17 21:00N 34°35' W 121°51'713.3
2018-Feb-17 20:30N 34°41' W 121°55'713.2
2018-Feb-17 20:00N 34°46' W 121°60'713.5
2018-Feb-17 19:30N 34°52' W 122°04'713.5
2018-Feb-17 19:00N 34°58' W 122°08'713.5
2018-Feb-17 18:30N 35°04' W 122°13'713.4
2018-Feb-17 18:00N 35°09' W 122°17'713.4
2018-Feb-17 17:29N 35°16' W 122°21'613.5
2018-Feb-17 17:00N 35°21' W 122°25'713.5
2018-Feb-17 16:30N 35°27' W 122°30'713.4
2018-Feb-17 16:00N 35°32' W 122°34'713.6
2018-Feb-17 15:30N 35°38' W 122°38'713.4
2018-Feb-17 15:00N 35°44' W 122°43'713.2
2018-Feb-17 14:30N 35°50' W 122°47'613.0
2018-Feb-17 14:00N 35°55' W 122°51'713.1
2018-Feb-17 13:30N 36°01' W 122°55'713.4
2018-Feb-17 13:00N 36°06' W 122°60'713.4
2018-Feb-17 12:30N 36°12' W 123°04'713.5
2018-Feb-17 12:00N 36°18' W 123°08'812.4
2018-Feb-17 11:21N 36°25' W 123°12'513.4
2018-Feb-17 11:00N 36°30' W 123°11'713.2
2018-Feb-17 10:30N 36°37' W 123°10'713.0
2018-Feb-17 10:00N 36°43' W 123°10'713.2
2018-Feb-17 09:30N 36°50' W 123°09'813.7
2018-Feb-17 08:57N 36°57' W 123°08'613.3
2018-Feb-17 08:30N 37°03' W 123°08'713.2
2018-Feb-17 07:59N 37°10' W 123°08'612.8
2018-Feb-17 07:30N 37°16' W 123°09'713.0
2018-Feb-17 07:00N 37°23' W 123°08'713.6
2018-Feb-17 06:30N 37°30' W 123°07'612.2
2018-Feb-17 06:00N 37°34' W 123°02'713.3
2018-Feb-17 05:30N 37°38' W 122°55'713.2
2018-Feb-17 05:00N 37°42' W 122°48'612.4
2018-Feb-17 04:30N 37°44' W 122°41'611.9
2018-Feb-17 04:00N 37°47' W 122°35'611.4
2018-Feb-17 03:30N 37°50' W 122°28'4 7.1
2018-Feb-17 03:00N 37°52' W 122°25'3 7.0
2018-Feb-17 02:30N 37°55' W 122°25'0 0.2
2018-Feb-17 01:55N 37°55' W 122°25'0 0.0
2018-Feb-17 01:25N 37°55' W 122°25'0 0.0
2018-Feb-17 00:58N 37°55' W 122°25'0 0.0
2018-Feb-17 00:19N 37°55' W 122°25'0 0.0
2018-Feb-16 23:55N 37°55' W 122°25'0 0.0
2018-Feb-16 23:25N 37°55' W 122°25'0 0.0
2018-Feb-16 22:58N 37°55' W 122°25'0 0.0
2018-Feb-16 22:28N 37°55' W 122°25'0 0.0
2018-Feb-16 21:58N 37°55' W 122°25'0 0.0
2018-Feb-16 21:25N 37°55' W 122°25'0 0.0
2018-Feb-16 20:58N 37°55' W 122°25'0 0.0
2018-Feb-16 20:28N 37°55' W 122°25'0 0.0
2018-Feb-16 19:58N 37°55' W 122°25'0 0.0
2018-Feb-16 19:28N 37°55' W 122°25'0 0.0
2018-Feb-16 18:55N 37°55' W 122°25'0 0.0
2018-Feb-16 18:28N 37°55' W 122°25'0 0.0
2018-Feb-16 17:58N 37°55' W 122°25'0 0.0
2018-Feb-16 17:28N 37°55' W 122°25'0 0.0
2018-Feb-16 16:58N 37°55' W 122°25'0 0.0
2018-Feb-16 16:25N 37°55' W 122°25'0 0.0
2018-Feb-16 15:58N 37°55' W 122°25'0 0.0
2018-Feb-16 15:28N 37°55' W 122°25'0 0.0
2018-Feb-16 14:58N 37°55' W 122°25'0 0.0
2018-Feb-16 14:26N 37°55' W 122°25'0 0.0
2018-Feb-16 13:59N 37°55' W 122°25'0 0.0
2018-Feb-16 13:30N 37°55' W 122°25'0 0.0
2018-Feb-16 12:57N 37°55' W 122°25'0 0.0
2018-Feb-16 12:30N 37°55' W 122°25'0 0.0
2018-Feb-16 11:57N 37°55' W 122°25'0 0.0
2018-Feb-16 11:31N 37°55' W 122°25'0 0.0
2018-Feb-16 11:00N 37°55' W 122°25'0 0.0
2018-Feb-16 10:30N 37°55' W 122°25'0 0.0
2018-Feb-16 09:57N 37°55' W 122°25'0 0.0
2018-Feb-16 09:27N 37°55' W 122°25'0 0.0
2018-Feb-16 09:00N 37°55' W 122°25'0 0.0
2018-Feb-16 08:27N 37°55' W 122°25'0 0.0
2018-Feb-16 08:01N 37°55' W 122°25'0 0.0
2018-Feb-16 07:30N 37°55' W 122°25'0 0.0
2018-Feb-16 06:58N 37°55' W 122°25'0 0.0
2018-Feb-16 06:28N 37°55' W 122°25'0 0.0
2018-Feb-16 05:58N 37°55' W 122°25'0 0.0
2018-Feb-16 05:28N 37°55' W 122°25'0 0.0
2018-Feb-16 04:52N 37°55' W 122°25'0 0.0
2018-Feb-16 04:28N 37°55' W 122°25'0 0.0
2018-Feb-16 03:58N 37°55' W 122°25'0 0.0
2018-Feb-16 03:28N 37°55' W 122°25'0 0.0
2018-Feb-16 02:58N 37°55' W 122°25'0 0.0
2018-Feb-16 02:28N 37°55' W 122°25'0 0.0
2018-Feb-16 01:58N 37°55' W 122°25'0 0.0
2018-Feb-16 01:28N 37°55' W 122°25'0 0.0
2018-Feb-16 00:58N 37°55' W 122°25'0 0.0
2018-Feb-16 00:28N 37°55' W 122°25'0 0.0
2018-Feb-15 23:58N 37°55' W 122°25'0 0.0
2018-Feb-15 23:28N 37°55' W 122°25'0 0.0
2018-Feb-15 22:58N 37°55' W 122°25'0 0.0
2018-Feb-15 22:28N 37°55' W 122°25'0 0.0
2018-Feb-15 21:58N 37°55' W 122°25'0 0.0
2018-Feb-15 21:28N 37°55' W 122°25'0 0.0
2018-Feb-15 20:58N 37°55' W 122°25'0 0.0
2018-Feb-15 20:28N 37°55' W 122°25'0 0.0
2018-Feb-15 19:58N 37°55' W 122°25'0 0.0
2018-Feb-15 19:28N 37°55' W 122°25'0 0.0
2018-Feb-15 19:00N 37°55' W 122°25'0 0.0
2018-Feb-15 18:30N 37°55' W 122°25'0 0.0
2018-Feb-15 17:57N 37°55' W 122°25'0 0.0
2018-Feb-15 17:30N 37°55' W 122°25'0 0.0
2018-Feb-15 17:00N 37°55' W 122°25'0 0.0
2018-Feb-15 16:30N 37°55' W 122°25'0 0.0
2018-Feb-15 16:00N 37°55' W 122°25'0 0.0
2018-Feb-15 15:21N 37°55' W 122°25'0 0.0
2018-Feb-15 15:00N 37°55' W 122°25'0 0.0
2018-Feb-15 14:30N 37°55' W 122°25'0 0.0
2018-Feb-15 13:57N 37°55' W 122°25'0 0.0
2018-Feb-15 13:30N 37°55' W 122°25'0 0.0
2018-Feb-15 13:00N 37°55' W 122°25'0 0.0
2018-Feb-15 12:30N 37°55' W 122°25'0 0.0
2018-Feb-15 11:57N 37°55' W 122°25'0 0.0
2018-Feb-15 11:30N 37°55' W 122°25'0 0.0
2018-Feb-15 11:00N 37°55' W 122°25'0 0.0
2018-Feb-15 10:30N 37°55' W 122°25'0 0.0
2018-Feb-15 10:00N 37°55' W 122°25'0 0.0
2018-Feb-15 09:30N 37°55' W 122°25'0 0.0
2018-Feb-15 08:57N 37°55' W 122°25'0 0.0
2018-Feb-15 08:30N 37°55' W 122°25'0 0.0
2018-Feb-15 08:00N 37°55' W 122°25'0 0.0
2018-Feb-15 07:27N 37°55' W 122°25'0 0.0
2018-Feb-15 06:58N 37°55' W 122°25'0 0.0
2018-Feb-15 06:25N 37°55' W 122°25'0 0.0
2018-Feb-15 05:58N 37°55' W 122°25'0 0.0
2018-Feb-15 05:25N 37°55' W 122°25'0 0.0
2018-Feb-15 04:52N 37°55' W 122°25'0 0.0
2018-Feb-15 04:22N 37°55' W 122°25'0 0.0
2018-Feb-15 03:52N 37°55' W 122°25'0 0.0
2018-Feb-15 03:25N 37°55' W 122°25'0 0.0
2018-Feb-15 02:58N 37°55' W 122°25'0 0.0
2018-Feb-15 02:28N 37°55' W 122°25'0 0.0
2018-Feb-15 01:58N 37°55' W 122°25'0 0.0
2018-Feb-15 01:28N 37°55' W 122°25'0 0.0
2018-Feb-15 00:58N 37°55' W 122°25'0 0.0
2018-Feb-15 00:25N 37°55' W 122°25'0 0.0
2018-Feb-14 23:58N 37°55' W 122°25'0 0.0
2018-Feb-14 23:28N 37°55' W 122°25'0 0.0
2018-Feb-14 22:55N 37°55' W 122°25'0 0.0
2018-Feb-14 22:25N 37°55' W 122°25'0 0.0
2018-Feb-14 21:58N 37°55' W 122°25'0 0.0
2018-Feb-14 21:28N 37°55' W 122°25'0 0.0
2018-Feb-14 20:55N 37°55' W 122°25'0 0.0
2018-Feb-14 20:28N 37°55' W 122°25'0 0.0
2018-Feb-14 19:58N 37°55' W 122°25'0 0.0
2018-Feb-14 19:28N 37°55' W 122°25'0 0.0
2018-Feb-14 18:58N 37°55' W 122°25'0 0.0
2018-Feb-14 18:25N 37°55' W 122°25'0 0.0
2018-Feb-14 17:58N 37°55' W 122°25'0 0.0
2018-Feb-14 17:28N 37°55' W 122°25'0 0.0
2018-Feb-14 16:58N 37°55' W 122°25'0 0.0
2018-Feb-14 16:25N 37°55' W 122°25'0 0.0
2018-Feb-14 15:55N 37°55' W 122°25'0 0.0
2018-Feb-14 15:25N 37°55' W 122°25'0 0.0
2018-Feb-14 14:55N 37°55' W 122°25'0 0.0
2018-Feb-14 14:25N 37°55' W 122°25'0 0.0
2018-Feb-14 13:55N 37°55' W 122°25'0 0.0
2018-Feb-14 13:28N 37°55' W 122°25'0 0.0
2018-Feb-14 12:55N 37°55' W 122°25'0 0.0
2018-Feb-14 12:25N 37°55' W 122°25'0 0.0
2018-Feb-14 11:58N 37°55' W 122°25'0 0.0
2018-Feb-14 11:25N 37°55' W 122°25'0 0.0
2018-Feb-14 10:55N 37°55' W 122°25'0 0.0
2018-Feb-14 10:25N 37°55' W 122°25'0 0.0
2018-Feb-14 09:58N 37°55' W 122°25'0 0.0
2018-Feb-14 09:28N 37°55' W 122°25'0 0.0
2018-Feb-14 08:58N 37°55' W 122°25'0 0.0
2018-Feb-14 08:28N 37°55' W 122°25'0 0.0
2018-Feb-14 07:58N 37°55' W 122°25'0 0.0
2018-Feb-14 07:28N 37°55' W 122°25'0 0.0
2018-Feb-14 06:59N 37°55' W 122°25'0 0.1
2018-Feb-14 06:30N 37°55' W 122°25'0 0.9
2018-Feb-14 06:00N 37°55' W 122°25'4 7.8
2018-Feb-14 05:31N 37°51' W 122°24'4 8.0
2018-Feb-14 05:00N 37°48' W 122°22'2 3.4
2018-Feb-14 04:31N 37°46' W 122°21'0 0.4
2018-Feb-14 03:58N 37°46' W 122°21'0 0.1
2018-Feb-14 03:28N 37°46' W 122°22'0 0.0
2018-Feb-14 02:58N 37°46' W 122°22'0 0.0
2018-Feb-14 02:28N 37°46' W 122°22'0 0.3
2018-Feb-14 01:59N 37°46' W 122°22'0 0.2
2018-Feb-14 01:29N 37°46' W 122°22'0 0.0
2018-Feb-14 00:59N 37°46' W 122°22'0 0.0
2018-Feb-14 00:29N 37°46' W 122°22'0 0.0
2018-Feb-13 23:59N 37°46' W 122°22'0 0.0
2018-Feb-13 23:29N 37°46' W 122°22'0 0.1
2018-Feb-13 22:59N 37°46' W 122°22'0 0.2
2018-Feb-13 22:30N 37°46' W 122°22'1 1.2
2018-Feb-13 22:00N 37°46' W 122°21'1 2.7
2018-Feb-13 21:30N 37°47' W 122°22'2 3.8
2018-Feb-13 21:00N 37°49' W 122°23'4 7.4
2018-Feb-13 20:30N 37°49' W 122°27'4 8.8
2018-Feb-13 20:00N 37°47' W 122°33'511.0
2018-Feb-13 19:30N 37°45' W 122°39'612.2
2018-Feb-13 19:00N 37°41' W 122°45'612.7
2018-Feb-13 18:30N 37°38' W 122°51'612.7
2018-Feb-13 18:01N 37°34' W 122°58'611.7
2018-Feb-13 17:30N 37°30' W 123°03'611.9
2018-Feb-13 17:00N 37°24' W 123°04'17810.2
2018-Feb-12 23:27N 34°36' W 121°52'510.7
2018-Feb-12 22:59N 34°31' W 121°49'510.3
2018-Feb-12 22:30N 34°27' W 121°45'611.2
2018-Feb-12 22:00N 34°22' W 121°42'611.3
2018-Feb-12 21:30N 34°17' W 121°38'611.4
2018-Feb-12 21:00N 34°13' W 121°35'611.7
2018-Feb-12 20:30N 34°08' W 121°31'611.0
2018-Feb-12 20:00N 34°04' W 121°26'611.4
2018-Feb-12 19:30N 34°01' W 121°20'611.6
2018-Feb-12 19:00N 33°59' W 121°14'611.9
2018-Feb-12 18:30N 33°57' W 121°07'612.0
2018-Feb-12 18:00N 33°54' W 121°01'612.1
2018-Feb-12 17:30N 33°52' W 120°54'612.0
2018-Feb-12 17:00N 33°49' W 120°47'612.2
2018-Feb-12 16:30N 33°47' W 120°41'612.0
2018-Feb-12 16:00N 33°44' W 120°34'612.1
2018-Feb-12 15:30N 33°42' W 120°27'612.0
2018-Feb-12 15:00N 33°39' W 120°21'611.6
2018-Feb-12 14:31N 33°37' W 120°15'612.1
2018-Feb-12 14:00N 33°38' W 120°07'612.4
2018-Feb-12 13:29N 33°38' W 119°60'612.5
2018-Feb-12 13:00N 33°39' W 119°52'612.7
2018-Feb-12 12:30N 33°40' W 119°45'612.8
2018-Feb-12 12:00N 33°41' W 119°37'712.9
2018-Feb-12 11:30N 33°41' W 119°29'613.0
2018-Feb-12 11:00N 33°42' W 119°22'713.1
2018-Feb-12 10:29N 33°43' W 119°13'613.0
2018-Feb-12 10:00N 33°43' W 119°06'612.0
2018-Feb-12 09:30N 33°44' W 118°59'612.0
2018-Feb-12 09:00N 33°44' W 118°52'611.9
2018-Feb-12 08:30N 33°44' W 118°45'611.1
2018-Feb-12 08:00N 33°49' W 118°41'13 2.0
2018-Feb-12 01:41N 33°55' W 118°27'0 0.0
2018-Feb-12 01:17N 33°55' W 118°27'0 0.0
2018-Feb-12 00:59N 33°55' W 118°27'0 0.0
2018-Feb-12 00:29N 33°55' W 118°27'0 0.0
2018-Feb-11 23:35N 33°55' W 118°27'0 0.0
2018-Feb-11 23:23N 33°55' W 118°27'0 0.0
2018-Feb-11 22:56N 33°55' W 118°27'0 0.0
2018-Feb-11 22:26N 33°55' W 118°27'0 0.0
2018-Feb-11 21:59N 33°55' W 118°27'0 0.0
2018-Feb-11 21:29N 33°55' W 118°27'0 0.0
2018-Feb-11 20:11N 33°55' W 118°27'0 0.0
2018-Feb-11 19:59N 33°55' W 118°27'0 0.0
2018-Feb-11 19:29N 33°55' W 118°27'0 0.0
2018-Feb-11 01:36N 33°55' W 118°27'0 0.0
2018-Feb-11 01:03N 33°55' W 118°27'0 0.0
2018-Feb-10 23:45N 33°55' W 118°27'0 0.0
2018-Feb-10 23:21N 33°55' W 118°27'  

Dump ship's entire track history